sensor_id;sensor_type;location;lat;lon;timestamp;temperature;humidity
13496;DHT22;6820;49.374;8.452;2023-04-03T00:00:42;6.58;99.99
13496;DHT22;6820;49.374;8.452;2023-04-03T00:04:44;6.50;99.99
13496;DHT22;6820;49.374;8.452;2023-04-03T00:08:46;6.43;99.99
13496;DHT22;6820;49.374;8.452;2023-04-03T00:12:47;6.35;99.99
13496;DHT22;6820;49.374;8.452;2023-04-03T00:16:49;6.24;99.99
13496;DHT22;6820;49.374;8.452;2023-04-03T00:20:51;6.16;99.99
13496;DHT22;6820;49.374;8.452;2023-04-03T00:24:52;6.10;99.99
13496;DHT22;6820;49.374;8.452;2023-04-03T00:28:54;6.06;99.99
13496;DHT22;6820;49.374;8.452;2023-04-03T00:32:55;6.02;99.99
13496;DHT22;6820;49.374;8.452;2023-04-03T00:36:57;5.98;99.99
13496;DHT22;6820;49.374;8.452;2023-04-03T00:40:59;6.01;99.99
13496;DHT22;6820;49.374;8.452;2023-04-03T00:49:02;5.90;99.99
13496;DHT22;6820;49.374;8.452;2023-04-03T00:53:04;5.90;99.99
13496;DHT22;6820;49.374;8.452;2023-04-03T00:57:07;5.85;99.99
13496;DHT22;6820;49.374;8.452;2023-04-03T01:01:11;5.80;99.99
13496;DHT22;6820;49.374;8.452;2023-04-03T01:05:16;5.73;99.99
13496;DHT22;6820;49.374;8.452;2023-04-03T01:09:20;5.67;99.99
13496;DHT22;6820;49.374;8.452;2023-04-03T01:13:27;5.65;99.99
13496;DHT22;6820;49.374;8.452;2023-04-03T01:17:33;5.62;99.99
13496;DHT22;6820;49.374;8.452;2023-04-03T01:21:47;5.63;99.99
13496;DHT22;6820;49.374;8.452;2023-04-03T01:25:54;5.59;99.99
13496;DHT22;6820;49.374;8.452;2023-04-03T01:29:57;5.62;99.99
13496;DHT22;6820;49.374;8.452;2023-04-03T01:33:59;5.56;99.99
13496;DHT22;6820;49.374;8.452;2023-04-03T01:38:02;5.55;99.99
13496;DHT22;6820;49.374;8.452;2023-04-03T01:42:04;5.55;99.99
13496;DHT22;6820;49.374;8.452;2023-04-03T01:46:10;5.55;99.99
13496;DHT22;6820;49.374;8.452;2023-04-03T01:50:12;5.49;99.99
13496;DHT22;6820;49.374;8.452;2023-04-03T01:54:13;5.47;99.99
13496;DHT22;6820;49.374;8.452;2023-04-03T01:58:15;5.40;99.99
13496;DHT22;6820;49.374;8.452;2023-04-03T02:02:17;5.30;99.99
13496;DHT22;6820;49.374;8.452;2023-04-03T02:06:21;5.24;99.99
13496;DHT22;6820;49.374;8.452;2023-04-03T02:10:23;5.20;99.99
13496;DHT22;6820;49.374;8.452;2023-04-03T02:14:24;5.17;99.99
13496;DHT22;6820;49.374;8.452;2023-04-03T02:18:28;5.12;99.99
13496;DHT22;6820;49.374;8.452;2023-04-03T02:22:30;5.09;99.99
13496;DHT22;6820;49.374;8.452;2023-04-03T02:26:31;5.09;99.99
13496;DHT22;6820;49.374;8.452;2023-04-03T02:30:33;5.06;99.99
13496;DHT22;6820;49.374;8.452;2023-04-03T02:34:35;5.04;99.99
13496;DHT22;6820;49.374;8.452;2023-04-03T02:38:37;4.99;99.99
13496;DHT22;6820;49.374;8.452;2023-04-03T02:42:39;5.01;99.99
13496;DHT22;6820;49.374;8.452;2023-04-03T02:46:41;4.96;99.99
13496;DHT22;6820;49.374;8.452;2023-04-03T02:50:43;4.91;99.99
13496;DHT22;6820;49.374;8.452;2023-04-03T02:54:44;4.88;99.99
13496;DHT22;6820;49.374;8.452;2023-04-03T02:58:46;4.87;99.99
13496;DHT22;6820;49.374;8.452;2023-04-03T03:02:50;4.84;99.99
13496;DHT22;6820;49.374;8.452;2023-04-03T03:06:51;4.77;99.99
13496;DHT22;6820;49.374;8.452;2023-04-03T03:10:53;4.71;99.99
13496;DHT22;6820;49.374;8.452;2023-04-03T03:14:55;4.67;99.99
13496;DHT22;6820;49.374;8.452;2023-04-03T03:18:56;4.65;99.99
13496;DHT22;6820;49.374;8.452;2023-04-03T03:22:59;4.65;99.99
13496;DHT22;6820;49.374;8.452;2023-04-03T03:27:01;4.64;99.99
13496;DHT22;6820;49.374;8.452;2023-04-03T03:31:03;4.56;99.99
13496;DHT22;6820;49.374;8.452;2023-04-03T03:35:06;4.50;99.99
13496;DHT22;6820;49.374;8.452;2023-04-03T03:39:07;4.47;99.99
13496;DHT22;6820;49.374;8.452;2023-04-03T03:43:09;4.47;99.99
13496;DHT22;6820;49.374;8.452;2023-04-03T03:47:11;4.42;99.99
13496;DHT22;6820;49.374;8.452;2023-04-03T03:51:13;4.36;99.99
13496;DHT22;6820;49.374;8.452;2023-04-03T03:55:14;4.35;99.99
13496;DHT22;6820;49.374;8.452;2023-04-03T03:59:16;4.31;99.99
13496;DHT22;6820;49.374;8.452;2023-04-03T04:03:19;4.20;99.99
13496;DHT22;6820;49.374;8.452;2023-04-03T04:07:23;4.21;99.99
13496;DHT22;6820;49.374;8.452;2023-04-03T04:11:25;4.18;99.99
13496;DHT22;6820;49.374;8.452;2023-04-03T04:15:29;4.18;99.99
13496;DHT22;6820;49.374;8.452;2023-04-03T04:19:32;4.16;99.99
13496;DHT22;6820;49.374;8.452;2023-04-03T04:23:34;4.16;99.99
13496;DHT22;6820;49.374;8.452;2023-04-03T04:27:37;4.11;99.99
13496;DHT22;6820;49.374;8.452;2023-04-03T04:31:39;4.14;99.99
13496;DHT22;6820;49.374;8.452;2023-04-03T04:35:42;4.13;99.99
13496;DHT22;6820;49.374;8.452;2023-04-03T04:39:45;4.08;99.99
13496;DHT22;6820;49.374;8.452;2023-04-03T04:43:48;4.08;99.99
13496;DHT22;6820;49.374;8.452;2023-04-03T04:47:50;4.06;99.99
13496;DHT22;6820;49.374;8.452;2023-04-03T04:51:54;4.07;99.99
13496;DHT22;6820;49.374;8.452;2023-04-03T04:56:01;4.02;99.99
13496;DHT22;6820;49.374;8.452;2023-04-03T05:00:06;4.04;99.99
13496;DHT22;6820;49.374;8.452;2023-04-03T05:04:09;4.04;99.99
13496;DHT22;6820;49.374;8.452;2023-04-03T05:08:12;4.08;99.99
13496;DHT22;6820;49.374;8.452;2023-04-03T05:12:16;4.14;99.99
13496;DHT22;6820;49.374;8.452;2023-04-03T05:16:25;4.18;99.99
13496;DHT22;6820;49.374;8.452;2023-04-03T05:20:28;4.24;99.99
13496;DHT22;6820;49.374;8.452;2023-04-03T05:24:31;4.31;99.99
13496;DHT22;6820;49.374;8.452;2023-04-03T05:28:33;4.34;99.99
13496;DHT22;6820;49.374;8.452;2023-04-03T05:32:35;4.42;99.99
13496;DHT22;6820;49.374;8.452;2023-04-03T05:37:00;4.44;99.99
13496;DHT22;6820;49.374;8.452;2023-04-03T05:41:02;4.47;99.99
13496;DHT22;6820;49.374;8.452;2023-04-03T05:45:04;4.53;99.99
13496;DHT22;6820;49.374;8.452;2023-04-03T05:49:06;4.56;99.99
13496;DHT22;6820;49.374;8.452;2023-04-03T05:53:15;4.59;99.99
13496;DHT22;6820;49.374;8.452;2023-04-03T05:57:22;4.65;99.99
13496;DHT22;6820;49.374;8.452;2023-04-03T06:01:24;4.68;99.99
13496;DHT22;6820;49.374;8.452;2023-04-03T06:05:26;4.72;99.99
13496;DHT22;6820;49.374;8.452;2023-04-03T06:09:28;4.74;99.99
13496;DHT22;6820;49.374;8.452;2023-04-03T06:13:30;4.71;99.99
13496;DHT22;6820;49.374;8.452;2023-04-03T06:17:32;4.67;99.99
13496;DHT22;6820;49.374;8.452;2023-04-03T06:21:34;4.69;99.99
13496;DHT22;6820;49.374;8.452;2023-04-03T06:25:37;4.74;99.99
13496;DHT22;6820;49.374;8.452;2023-04-03T06:29:38;4.74;99.99
13496;DHT22;6820;49.374;8.452;2023-04-03T06:33:40;4.86;99.99
13496;DHT22;6820;49.374;8.452;2023-04-03T06:37:41;4.94;99.99
13496;DHT22;6820;49.374;8.452;2023-04-03T06:41:43;4.99;99.99
13496;DHT22;6820;49.374;8.452;2023-04-03T06:45:45;5.04;99.99
13496;DHT22;6820;49.374;8.452;2023-04-03T06:49:47;5.06;99.99
13496;DHT22;6820;49.374;8.452;2023-04-03T06:53:49;5.15;99.99
13496;DHT22;6820;49.374;8.452;2023-04-03T06:57:52;5.22;99.99
13496;DHT22;6820;49.374;8.452;2023-04-03T07:01:54;5.23;99.99
13496;DHT22;6820;49.374;8.452;2023-04-03T07:05:55;5.26;99.99
13496;DHT22;6820;49.374;8.452;2023-04-03T07:09:57;5.32;99.99
13496;DHT22;6820;49.374;8.452;2023-04-03T07:13:59;5.37;99.99
13496;DHT22;6820;49.374;8.452;2023-04-03T07:18:01;5.44;99.99
13496;DHT22;6820;49.374;8.452;2023-04-03T07:22:02;5.49;99.99
13496;DHT22;6820;49.374;8.452;2023-04-03T07:26:04;5.55;99.99
13496;DHT22;6820;49.374;8.452;2023-04-03T07:30:07;5.65;99.99
13496;DHT22;6820;49.374;8.452;2023-04-03T07:34:10;5.73;99.99
13496;DHT22;6820;49.374;8.452;2023-04-03T07:38:12;5.83;99.99
13496;DHT22;6820;49.374;8.452;2023-04-03T07:42:14;5.96;99.99
13496;DHT22;6820;49.374;8.452;2023-04-03T07:46:16;6.06;99.99
13496;DHT22;6820;49.374;8.452;2023-04-03T07:50:18;6.16;99.99
13496;DHT22;6820;49.374;8.452;2023-04-03T07:54:20;6.28;99.99
13496;DHT22;6820;49.374;8.452;2023-04-03T07:58:21;6.40;99.99
13496;DHT22;6820;49.374;8.452;2023-04-03T08:02:23;6.54;99.99
13496;DHT22;6820;49.374;8.452;2023-04-03T08:06:25;6.65;99.99
13496;DHT22;6820;49.374;8.452;2023-04-03T08:10:50;6.79;99.99
13496;DHT22;6820;49.374;8.452;2023-04-03T08:14:53;6.93;99.99
13496;DHT22;6820;49.374;8.452;2023-04-03T08:18:54;7.00;99.99
13496;DHT22;6820;49.374;8.452;2023-04-03T08:22:56;7.15;99.99
13496;DHT22;6820;49.374;8.452;2023-04-03T08:26:58;7.23;99.99
13496;DHT22;6820;49.374;8.452;2023-04-03T08:31:03;7.36;99.99
13496;DHT22;6820;49.374;8.452;2023-04-03T08:35:12;7.47;99.99
13496;DHT22;6820;49.374;8.452;2023-04-03T08:39:13;7.60;99.99
13496;DHT22;6820;49.374;8.452;2023-04-03T08:51:57;7.94;99.99
13496;DHT22;6820;49.374;8.452;2023-04-03T08:56:02;8.09;99.99
13496;DHT22;6820;49.374;8.452;2023-04-03T09:04:15;8.20;99.99
13496;DHT22;6820;49.374;8.452;2023-04-03T09:08:22;8.14;99.99
13496;DHT22;6820;49.374;8.452;2023-04-03T09:12:38;8.21;99.99
13496;DHT22;6820;49.374;8.452;2023-04-03T09:16:54;8.29;99.99
13496;DHT22;6820;49.374;8.452;2023-04-03T09:21:20;8.37;99.99
13496;DHT22;6820;49.374;8.452;2023-04-03T09:25:33;8.54;99.99
13496;DHT22;6820;49.374;8.452;2023-04-03T09:29:42;8.67;99.99
13496;DHT22;6820;49.374;8.452;2023-04-03T09:33:50;8.85;99.99
13496;DHT22;6820;49.374;8.452;2023-04-03T09:42:20;9.37;99.99
13496;DHT22;6820;49.374;8.452;2023-04-03T09:46:30;9.56;99.99
13496;DHT22;6820;49.374;8.452;2023-04-03T09:50:35;9.41;99.99
13496;DHT22;6820;49.374;8.452;2023-04-03T09:54:38;9.48;99.99
13496;DHT22;6820;49.374;8.452;2023-04-03T09:58:42;9.44;99.99
13496;DHT22;6820;49.374;8.452;2023-04-03T10:02:55;9.52;99.99
13496;DHT22;6820;49.374;8.452;2023-04-03T10:06:57;9.53;99.99
13496;DHT22;6820;49.374;8.452;2023-04-03T10:11:17;9.53;99.99
13496;DHT22;6820;49.374;8.452;2023-04-03T10:15:20;9.70;99.99
13496;DHT22;6820;49.374;8.452;2023-04-03T10:23:57;9.81;99.99
13496;DHT22;6820;49.374;8.452;2023-04-03T10:28:15;9.86;99.99
13496;DHT22;6820;49.374;8.452;2023-04-03T10:41:37;10.04;99.99
13496;DHT22;6820;49.374;8.452;2023-04-03T10:54:25;10.26;99.99
13496;DHT22;6820;49.374;8.452;2023-04-03T10:58:52;10.35;99.99
13496;DHT22;6820;49.374;8.452;2023-04-03T11:02:59;10.31;99.99
13496;DHT22;6820;49.374;8.452;2023-04-03T11:07:12;10.29;99.99
13496;DHT22;6820;49.374;8.452;2023-04-03T11:11:20;10.39;99.99
13496;DHT22;6820;49.374;8.452;2023-04-03T11:15:25;10.38;99.99
13496;DHT22;6820;49.374;8.452;2023-04-03T11:19:34;10.36;99.99
13496;DHT22;6820;49.374;8.452;2023-04-03T11:23:40;10.38;99.99
13496;DHT22;6820;49.374;8.452;2023-04-03T11:32:20;10.54;99.99
13496;DHT22;6820;49.374;8.452;2023-04-03T11:36:38;10.70;99.99
13496;DHT22;6820;49.374;8.452;2023-04-03T11:40:55;10.83;99.99
13496;DHT22;6820;49.374;8.452;2023-04-03T12:07:32;10.60;99.99
13496;DHT22;6820;49.374;8.452;2023-04-03T12:11:34;10.75;99.99
13496;DHT22;6820;49.374;8.452;2023-04-03T12:19:39;10.69;99.99
13496;DHT22;6820;49.374;8.452;2023-04-03T12:28:05;10.62;99.99
13496;DHT22;6820;49.374;8.452;2023-04-03T12:36:44;10.51;99.99
13496;DHT22;6820;49.374;8.452;2023-04-03T12:40:57;10.36;99.99
13496;DHT22;6820;49.374;8.452;2023-04-03T12:45:17;10.76;99.99
13496;DHT22;6820;49.374;8.452;2023-04-03T12:49:29;11.30;99.99
13496;DHT22;6820;49.374;8.452;2023-04-03T12:53:39;11.70;99.99
13496;DHT22;6820;49.374;8.452;2023-04-03T12:57:41;11.53;99.99
13496;DHT22;6820;49.374;8.452;2023-04-03T13:01:44;11.28;99.68
13496;DHT22;6820;49.374;8.452;2023-04-03T13:06:00;10.70;99.22
13496;DHT22;6820;49.374;8.452;2023-04-03T13:14:17;11.54;96.92
13496;DHT22;6820;49.374;8.452;2023-04-03T13:18:31;11.94;96.21
13496;DHT22;6820;49.374;8.452;2023-04-03T13:22:35;12.41;96.12
13496;DHT22;6820;49.374;8.452;2023-04-03T13:26:45;13.03;95.83
13496;DHT22;6820;49.374;8.452;2023-04-03T13:30:57;12.92;94.57
13496;DHT22;6820;49.374;8.452;2023-04-03T13:35:23;12.54;94.92
13496;DHT22;6820;49.374;8.452;2023-04-03T13:39:37;12.48;95.89
13496;DHT22;6820;49.374;8.452;2023-04-03T13:43:39;12.66;97.05
13496;DHT22;6820;49.374;8.452;2023-04-03T13:47:43;12.36;95.58
13496;DHT22;6820;49.374;8.452;2023-04-03T13:51:47;11.96;97.05
13496;DHT22;6820;49.374;8.452;2023-04-03T13:56:08;11.66;97.75
13496;DHT22;6820;49.374;8.452;2023-04-03T14:00:21;11.98;97.19
13496;DHT22;6820;49.374;8.452;2023-04-03T14:04:53;11.81;96.84
13496;DHT22;6820;49.374;8.452;2023-04-03T14:08:59;12.11;96.58
13496;DHT22;6820;49.374;8.452;2023-04-03T14:13:00;12.37;95.47
13496;DHT22;6820;49.374;8.452;2023-04-03T14:17:03;12.49;93.48
13496;DHT22;6820;49.374;8.452;2023-04-03T14:21:25;12.91;94.40
13496;DHT22;6820;49.374;8.452;2023-04-03T14:25:27;13.06;93.60
13496;DHT22;6820;49.374;8.452;2023-04-03T14:29:29;13.21;92.13
13496;DHT22;6820;49.374;8.452;2023-04-03T14:33:31;13.38;92.49
13496;DHT22;6820;49.374;8.452;2023-04-03T14:37:36;13.25;91.68
13496;DHT22;6820;49.374;8.452;2023-04-03T14:41:38;12.76;92.49
13496;DHT22;6820;49.374;8.452;2023-04-03T14:45:39;12.61;93.70
13496;DHT22;6820;49.374;8.452;2023-04-03T14:49:41;12.52;91.61
13496;DHT22;6820;49.374;8.452;2023-04-03T14:53:43;12.95;91.65
13496;DHT22;6820;49.374;8.452;2023-04-03T14:57:46;13.16;90.34
13496;DHT22;6820;49.374;8.452;2023-04-03T15:01:48;13.19;89.18
13496;DHT22;6820;49.374;8.452;2023-04-03T15:05:50;13.12;88.67
13496;DHT22;6820;49.374;8.452;2023-04-03T15:09:51;13.13;88.36
13496;DHT22;6820;49.374;8.452;2023-04-03T15:13:53;13.12;87.85
13496;DHT22;6820;49.374;8.452;2023-04-03T15:17:55;13.22;88.46
13496;DHT22;6820;49.374;8.452;2023-04-03T15:21:59;13.28;88.83
13496;DHT22;6820;49.374;8.452;2023-04-03T15:26:01;13.17;87.30
13496;DHT22;6820;49.374;8.452;2023-04-03T15:30:04;13.25;86.63
13496;DHT22;6820;49.374;8.452;2023-04-03T15:34:06;13.13;86.29
13496;DHT22;6820;49.374;8.452;2023-04-03T15:38:08;13.09;87.14
13496;DHT22;6820;49.374;8.452;2023-04-03T15:42:11;12.63;87.24
13496;DHT22;6820;49.374;8.452;2023-04-03T15:46:13;12.62;88.04
13496;DHT22;6820;49.374;8.452;2023-04-03T15:50:16;12.63;87.73
13496;DHT22;6820;49.374;8.452;2023-04-03T15:54:17;12.84;87.23
13496;DHT22;6820;49.374;8.452;2023-04-03T15:58:19;13.04;86.57
13496;DHT22;6820;49.374;8.452;2023-04-03T16:02:21;12.98;86.33
13496;DHT22;6820;49.374;8.452;2023-04-03T16:06:22;12.92;86.33
13496;DHT22;6820;49.374;8.452;2023-04-03T16:10:26;12.44;87.08
13496;DHT22;6820;49.374;8.452;2023-04-03T16:14:28;12.01;88.18
13496;DHT22;6820;49.374;8.452;2023-04-03T16:18:31;12.03;88.37
13496;DHT22;6820;49.374;8.452;2023-04-03T16:22:35;12.12;88.88
13496;DHT22;6820;49.374;8.452;2023-04-03T16:26:38;12.12;86.59
13496;DHT22;6820;49.374;8.452;2023-04-03T16:30:40;12.29;87.82
13496;DHT22;6820;49.374;8.452;2023-04-03T16:34:42;12.00;86.39
13496;DHT22;6820;49.374;8.452;2023-04-03T16:38:45;11.96;86.22
13496;DHT22;6820;49.374;8.452;2023-04-03T16:42:46;11.87;87.45
13496;DHT22;6820;49.374;8.452;2023-04-03T16:46:48;11.88;87.76
13496;DHT22;6820;49.374;8.452;2023-04-03T16:50:50;11.72;87.24
13496;DHT22;6820;49.374;8.452;2023-04-03T16:54:54;11.53;87.59
13496;DHT22;6820;49.374;8.452;2023-04-03T16:58:57;11.05;88.04
13496;DHT22;6820;49.374;8.452;2023-04-03T17:02:58;10.99;88.53
13496;DHT22;6820;49.374;8.452;2023-04-03T17:07:00;10.70;88.53
13496;DHT22;6820;49.374;8.452;2023-04-03T17:11:07;10.72;89.74
13496;DHT22;6820;49.374;8.452;2023-04-03T17:15:09;10.62;90.82
13496;DHT22;6820;49.374;8.452;2023-04-03T17:19:10;10.44;91.78
13496;DHT22;6820;49.374;8.452;2023-04-03T17:23:13;10.34;92.65
13496;DHT22;6820;49.374;8.452;2023-04-03T17:27:14;10.09;91.63
13496;DHT22;6820;49.374;8.452;2023-04-03T17:31:16;9.88;91.77
13496;DHT22;6820;49.374;8.452;2023-04-03T17:35:17;9.68;92.02
13496;DHT22;6820;49.374;8.452;2023-04-03T17:39:19;9.55;92.98
13496;DHT22;6820;49.374;8.452;2023-04-03T17:43:21;9.40;94.05
13496;DHT22;6820;49.374;8.452;2023-04-03T17:47:22;9.26;95.07
13496;DHT22;6820;49.374;8.452;2023-04-03T17:51:26;9.15;94.81
13496;DHT22;6820;49.374;8.452;2023-04-03T17:55:27;9.01;95.57
13496;DHT22;6820;49.374;8.452;2023-04-03T17:59:29;8.89;96.50
13496;DHT22;6820;49.374;8.452;2023-04-03T18:03:31;8.83;97.06
13496;DHT22;6820;49.374;8.452;2023-04-03T18:07:33;8.75;97.47
13496;DHT22;6820;49.374;8.452;2023-04-03T18:11:34;8.67;97.67
13496;DHT22;6820;49.374;8.452;2023-04-03T18:15:37;8.61;98.03
13496;DHT22;6820;49.374;8.452;2023-04-03T18:19:44;8.54;98.65
13496;DHT22;6820;49.374;8.452;2023-04-03T18:23:46;8.47;98.85
13496;DHT22;6820;49.374;8.452;2023-04-03T18:27:50;8.45;99.72
13496;DHT22;6820;49.374;8.452;2023-04-03T18:31:53;8.40;99.99
13496;DHT22;6820;49.374;8.452;2023-04-03T18:35:56;8.31;99.99
13496;DHT22;6820;49.374;8.452;2023-04-03T18:39:58;8.21;99.99
13496;DHT22;6820;49.374;8.452;2023-04-03T18:44:00;8.17;99.99
13496;DHT22;6820;49.374;8.452;2023-04-03T18:48:04;8.09;99.99
13496;DHT22;6820;49.374;8.452;2023-04-03T18:52:06;8.02;99.99
13496;DHT22;6820;49.374;8.452;2023-04-03T18:56:07;8.00;99.99
13496;DHT22;6820;49.374;8.452;2023-04-03T19:00:09;7.94;99.99
13496;DHT22;6820;49.374;8.452;2023-04-03T19:04:11;7.92;99.99
13496;DHT22;6820;49.374;8.452;2023-04-03T19:08:14;7.85;99.99
13496;DHT22;6820;49.374;8.452;2023-04-03T19:12:15;7.77;99.99
13496;DHT22;6820;49.374;8.452;2023-04-03T19:16:17;7.73;99.99
13496;DHT22;6820;49.374;8.452;2023-04-03T19:20:19;7.73;99.99
13496;DHT22;6820;49.374;8.452;2023-04-03T19:24:21;7.67;99.99
13496;DHT22;6820;49.374;8.452;2023-04-03T19:28:22;7.55;99.99
13496;DHT22;6820;49.374;8.452;2023-04-03T19:32:24;7.50;99.99
13496;DHT22;6820;49.374;8.452;2023-04-03T19:36:26;7.45;99.99
13496;DHT22;6820;49.374;8.452;2023-04-03T19:40:28;7.47;99.99
13496;DHT22;6820;49.374;8.452;2023-04-03T19:44:30;7.45;99.99
13496;DHT22;6820;49.374;8.452;2023-04-03T19:48:34;7.37;99.99
13496;DHT22;6820;49.374;8.452;2023-04-03T19:52:36;7.30;99.99
13496;DHT22;6820;49.374;8.452;2023-04-03T19:56:38;7.26;99.99
13496;DHT22;6820;49.374;8.452;2023-04-03T20:00:39;7.18;99.99
13496;DHT22;6820;49.374;8.452;2023-04-03T20:04:42;7.12;99.99
13496;DHT22;6820;49.374;8.452;2023-04-03T20:08:43;7.07;99.99
13496;DHT22;6820;49.374;8.452;2023-04-03T20:12:45;6.99;99.99
13496;DHT22;6820;49.374;8.452;2023-04-03T20:16:46;6.96;99.99
13496;DHT22;6820;49.374;8.452;2023-04-03T20:20:52;6.91;99.99
13496;DHT22;6820;49.374;8.452;2023-04-03T20:24:55;6.82;99.99
13496;DHT22;6820;49.374;8.452;2023-04-03T20:29:02;6.79;99.99
13496;DHT22;6820;49.374;8.452;2023-04-03T20:33:04;6.71;99.99
13496;DHT22;6820;49.374;8.452;2023-04-03T20:37:06;6.68;99.99
13496;DHT22;6820;49.374;8.452;2023-04-03T20:41:09;6.64;99.99
13496;DHT22;6820;49.374;8.452;2023-04-03T20:45:11;6.60;99.99
13496;DHT22;6820;49.374;8.452;2023-04-03T20:49:13;6.60;99.99
13496;DHT22;6820;49.374;8.452;2023-04-03T20:53:15;6.54;99.99
13496;DHT22;6820;49.374;8.452;2023-04-03T20:57:19;6.48;99.99
13496;DHT22;6820;49.374;8.452;2023-04-03T21:01:21;6.42;99.99
13496;DHT22;6820;49.374;8.452;2023-04-03T21:05:24;6.38;99.99
13496;DHT22;6820;49.374;8.452;2023-04-03T21:23:04;6.14;99.99
13496;DHT22;6820;49.374;8.452;2023-04-03T21:27:06;6.08;99.99
13496;DHT22;6820;49.374;8.452;2023-04-03T21:31:09;6.10;99.99
13496;DHT22;6820;49.374;8.452;2023-04-03T21:35:12;6.06;99.99
13496;DHT22;6820;49.374;8.452;2023-04-03T21:39:13;6.05;99.99
13496;DHT22;6820;49.374;8.452;2023-04-03T21:43:15;6.02;99.99
13496;DHT22;6820;49.374;8.452;2023-04-03T21:47:18;5.92;99.99
13496;DHT22;6820;49.374;8.452;2023-04-03T21:51:19;5.88;99.99
13496;DHT22;6820;49.374;8.452;2023-04-03T21:55:21;5.85;99.99
13496;DHT22;6820;49.374;8.452;2023-04-03T21:59:23;5.85;99.99
13496;DHT22;6820;49.374;8.452;2023-04-03T22:03:25;5.80;99.99
13496;DHT22;6820;49.374;8.452;2023-04-03T22:07:27;5.75;99.99
13496;DHT22;6820;49.374;8.452;2023-04-03T22:11:28;5.75;99.99
13496;DHT22;6820;49.374;8.452;2023-04-03T22:15:34;5.63;99.99
13496;DHT22;6820;49.374;8.452;2023-04-03T22:19:37;5.62;99.99
13496;DHT22;6820;49.374;8.452;2023-04-03T22:23:39;5.60;99.99
13496;DHT22;6820;49.374;8.452;2023-04-03T22:27:41;5.59;99.99
13496;DHT22;6820;49.374;8.452;2023-04-03T22:31:42;5.56;99.99
13496;DHT22;6820;49.374;8.452;2023-04-03T22:35:45;5.55;99.99
13496;DHT22;6820;49.374;8.452;2023-04-03T22:39:49;5.51;99.99
13496;DHT22;6820;49.374;8.452;2023-04-03T22:43:51;5.45;99.99
13496;DHT22;6820;49.374;8.452;2023-04-03T22:47:52;5.44;99.99
13496;DHT22;6820;49.374;8.452;2023-04-03T22:51:58;5.38;99.99
13496;DHT22;6820;49.374;8.452;2023-04-03T22:56:01;5.35;99.99
13496;DHT22;6820;49.374;8.452;2023-04-03T23:00:05;5.32;99.99
13496;DHT22;6820;49.374;8.452;2023-04-03T23:04:07;5.30;99.99
13496;DHT22;6820;49.374;8.452;2023-04-03T23:08:08;5.26;99.99
13496;DHT22;6820;49.374;8.452;2023-04-03T23:12:10;5.29;99.99
13496;DHT22;6820;49.374;8.452;2023-04-03T23:16:12;5.24;99.99
13496;DHT22;6820;49.374;8.452;2023-04-03T23:20:14;5.17;99.99
13496;DHT22;6820;49.374;8.452;2023-04-03T23:24:15;5.15;99.99
13496;DHT22;6820;49.374;8.452;2023-04-03T23:28:17;5.11;99.99
13496;DHT22;6820;49.374;8.452;2023-04-03T23:32:19;5.06;99.99
13496;DHT22;6820;49.374;8.452;2023-04-03T23:36:20;5.06;99.99
13496;DHT22;6820;49.374;8.452;2023-04-03T23:40:22;5.04;99.99
13496;DHT22;6820;49.374;8.452;2023-04-03T23:44:23;5.05;99.99
13496;DHT22;6820;49.374;8.452;2023-04-03T23:48:25;5.01;99.99
13496;DHT22;6820;49.374;8.452;2023-04-03T23:52:27;4.91;99.99
13496;DHT22;6820;49.374;8.452;2023-04-03T23:56:28;4.87;99.99
